sensor_id;sensor_type;location;lat;lon;timestamp;temperature;humidity
33865;DHT22;20159;51.072;13.526;2023-04-16T00:01:49;10.10;94.30
33865;DHT22;20159;51.072;13.526;2023-04-16T00:04:14;10.10;94.30
33865;DHT22;20159;51.072;13.526;2023-04-16T00:06:40;10.00;94.20
33865;DHT22;20159;51.072;13.526;2023-04-16T00:09:06;10.00;94.20
33865;DHT22;20159;51.072;13.526;2023-04-16T00:11:32;9.90;94.20
33865;DHT22;20159;51.072;13.526;2023-04-16T00:13:57;9.90;94.30
33865;DHT22;20159;51.072;13.526;2023-04-16T00:16:23;9.90;94.40
33865;DHT22;20159;51.072;13.526;2023-04-16T00:18:48;9.90;94.50
33865;DHT22;20159;51.072;13.526;2023-04-16T00:21:14;9.90;94.60
33865;DHT22;20159;51.072;13.526;2023-04-16T00:23:40;9.90;94.70
33865;DHT22;20159;51.072;13.526;2023-04-16T00:26:07;9.90;94.80
33865;DHT22;20159;51.072;13.526;2023-04-16T00:28:33;9.90;94.90
33865;DHT22;20159;51.072;13.526;2023-04-16T00:31:00;9.90;94.90
33865;DHT22;20159;51.072;13.526;2023-04-16T00:33:25;9.80;94.90
33865;DHT22;20159;51.072;13.526;2023-04-16T00:35:51;9.90;95.00
33865;DHT22;20159;51.072;13.526;2023-04-16T00:38:16;9.90;95.00
33865;DHT22;20159;51.072;13.526;2023-04-16T00:40:42;9.90;95.00
33865;DHT22;20159;51.072;13.526;2023-04-16T00:43:08;9.90;95.00
33865;DHT22;20159;51.072;13.526;2023-04-16T00:45:33;9.90;94.90
33865;DHT22;20159;51.072;13.526;2023-04-16T00:48:00;9.90;94.90
33865;DHT22;20159;51.072;13.526;2023-04-16T00:50:25;9.90;94.90
33865;DHT22;20159;51.072;13.526;2023-04-16T00:52:51;9.90;94.90
33865;DHT22;20159;51.072;13.526;2023-04-16T00:55:17;9.90;94.90
33865;DHT22;20159;51.072;13.526;2023-04-16T00:57:44;9.90;94.90
33865;DHT22;20159;51.072;13.526;2023-04-16T01:00:10;9.90;94.90
33865;DHT22;20159;51.072;13.526;2023-04-16T01:02:36;9.90;94.90
33865;DHT22;20159;51.072;13.526;2023-04-16T01:05:03;9.90;94.90
33865;DHT22;20159;51.072;13.526;2023-04-16T01:07:29;9.90;95.00
33865;DHT22;20159;51.072;13.526;2023-04-16T01:09:55;9.90;94.90
33865;DHT22;20159;51.072;13.526;2023-04-16T01:12:21;9.90;94.90
33865;DHT22;20159;51.072;13.526;2023-04-16T01:14:47;9.90;94.90
33865;DHT22;20159;51.072;13.526;2023-04-16T01:17:12;9.90;94.80
33865;DHT22;20159;51.072;13.526;2023-04-16T01:19:38;9.80;94.70
33865;DHT22;20159;51.072;13.526;2023-04-16T01:22:04;9.90;94.70
33865;DHT22;20159;51.072;13.526;2023-04-16T01:24:30;9.80;94.70
33865;DHT22;20159;51.072;13.526;2023-04-16T01:26:59;9.80;94.70
33865;DHT22;20159;51.072;13.526;2023-04-16T01:29:25;9.90;94.70
33865;DHT22;20159;51.072;13.526;2023-04-16T01:31:50;9.80;94.70
33865;DHT22;20159;51.072;13.526;2023-04-16T01:34:16;9.70;94.70
33865;DHT22;20159;51.072;13.526;2023-04-16T01:36:41;9.70;94.70
33865;DHT22;20159;51.072;13.526;2023-04-16T01:39:07;9.70;94.70
33865;DHT22;20159;51.072;13.526;2023-04-16T01:41:36;9.70;94.70
33865;DHT22;20159;51.072;13.526;2023-04-16T01:44:01;9.70;94.60
33865;DHT22;20159;51.072;13.526;2023-04-16T01:46:28;9.60;94.60
33865;DHT22;20159;51.072;13.526;2023-04-16T01:48:55;9.60;94.60
33865;DHT22;20159;51.072;13.526;2023-04-16T01:51:21;9.60;94.60
33865;DHT22;20159;51.072;13.526;2023-04-16T01:53:47;9.60;94.60
33865;DHT22;20159;51.072;13.526;2023-04-16T01:56:13;9.50;94.60
33865;DHT22;20159;51.072;13.526;2023-04-16T01:58:39;9.50;94.60
33865;DHT22;20159;51.072;13.526;2023-04-16T02:01:05;9.60;94.70
33865;DHT22;20159;51.072;13.526;2023-04-16T02:03:31;9.40;94.70
33865;DHT22;20159;51.072;13.526;2023-04-16T02:05:56;9.40;94.70
33865;DHT22;20159;51.072;13.526;2023-04-16T02:08:22;9.30;94.70
33865;DHT22;20159;51.072;13.526;2023-04-16T02:10:49;9.30;94.70
33865;DHT22;20159;51.072;13.526;2023-04-16T02:13:15;9.30;94.70
33865;DHT22;20159;51.072;13.526;2023-04-16T02:15:48;9.30;94.70
33865;DHT22;20159;51.072;13.526;2023-04-16T02:18:13;9.20;94.70
33865;DHT22;20159;51.072;13.526;2023-04-16T02:20:43;9.20;94.60
33865;DHT22;20159;51.072;13.526;2023-04-16T02:23:09;9.10;94.70
33865;DHT22;20159;51.072;13.526;2023-04-16T02:25:45;9.10;94.60
33865;DHT22;20159;51.072;13.526;2023-04-16T02:28:12;9.10;94.70
33865;DHT22;20159;51.072;13.526;2023-04-16T02:30:39;9.00;94.60
33865;DHT22;20159;51.072;13.526;2023-04-16T02:33:05;8.90;94.60
33865;DHT22;20159;51.072;13.526;2023-04-16T02:35:32;9.00;94.70
33865;DHT22;20159;51.072;13.526;2023-04-16T02:37:58;8.90;94.70
33865;DHT22;20159;51.072;13.526;2023-04-16T02:40:23;8.90;94.70
33865;DHT22;20159;51.072;13.526;2023-04-16T02:42:49;8.80;94.80
33865;DHT22;20159;51.072;13.526;2023-04-16T02:45:15;8.80;94.80
33865;DHT22;20159;51.072;13.526;2023-04-16T02:47:40;8.80;94.80
33865;DHT22;20159;51.072;13.526;2023-04-16T02:50:06;8.80;94.90
33865;DHT22;20159;51.072;13.526;2023-04-16T02:52:32;8.80;94.90
33865;DHT22;20159;51.072;13.526;2023-04-16T02:54:58;8.70;95.00
33865;DHT22;20159;51.072;13.526;2023-04-16T02:57:24;8.70;95.00
33865;DHT22;20159;51.072;13.526;2023-04-16T02:59:49;8.70;95.00
33865;DHT22;20159;51.072;13.526;2023-04-16T03:02:15;8.70;95.00
33865;DHT22;20159;51.072;13.526;2023-04-16T03:04:41;8.70;95.00
33865;DHT22;20159;51.072;13.526;2023-04-16T03:07:06;8.70;95.00
33865;DHT22;20159;51.072;13.526;2023-04-16T03:09:36;11.00;95.60
33865;DHT22;20159;51.072;13.526;2023-04-16T03:12:01;8.70;95.00
33865;DHT22;20159;51.072;13.526;2023-04-16T03:14:27;8.70;95.10
33865;DHT22;20159;51.072;13.526;2023-04-16T03:16:53;8.70;95.10
33865;DHT22;20159;51.072;13.526;2023-04-16T03:19:18;8.70;95.10
33865;DHT22;20159;51.072;13.526;2023-04-16T03:21:44;8.70;95.10
33865;DHT22;20159;51.072;13.526;2023-04-16T03:24:09;8.60;95.10
33865;DHT22;20159;51.072;13.526;2023-04-16T03:26:35;8.70;95.10
33865;DHT22;20159;51.072;13.526;2023-04-16T03:29:01;8.70;95.20
33865;DHT22;20159;51.072;13.526;2023-04-16T03:31:27;8.70;95.20
33865;DHT22;20159;51.072;13.526;2023-04-16T03:33:58;8.70;95.20
33865;DHT22;20159;51.072;13.526;2023-04-16T03:36:23;8.70;95.30
33865;DHT22;20159;51.072;13.526;2023-04-16T03:38:51;8.70;95.20
33865;DHT22;20159;51.072;13.526;2023-04-16T03:41:16;8.70;95.30
33865;DHT22;20159;51.072;13.526;2023-04-16T03:43:42;8.70;95.20
33865;DHT22;20159;51.072;13.526;2023-04-16T03:46:07;8.70;95.20
33865;DHT22;20159;51.072;13.526;2023-04-16T03:48:33;8.70;95.10
33865;DHT22;20159;51.072;13.526;2023-04-16T03:50:58;8.70;95.10
33865;DHT22;20159;51.072;13.526;2023-04-16T03:53:24;8.70;95.10
33865;DHT22;20159;51.072;13.526;2023-04-16T03:55:50;8.60;95.10
33865;DHT22;20159;51.072;13.526;2023-04-16T03:58:16;8.70;95.10
33865;DHT22;20159;51.072;13.526;2023-04-16T04:00:42;8.60;95.00
33865;DHT22;20159;51.072;13.526;2023-04-16T04:03:08;8.60;95.00
33865;DHT22;20159;51.072;13.526;2023-04-16T04:05:38;8.60;95.00
33865;DHT22;20159;51.072;13.526;2023-04-16T04:08:04;7.60;94.80
33865;DHT22;20159;51.072;13.526;2023-04-16T04:10:34;8.50;95.10
33865;DHT22;20159;51.072;13.526;2023-04-16T04:13:01;8.60;95.20
33865;DHT22;20159;51.072;13.526;2023-04-16T04:15:26;7.50;94.90
33865;DHT22;20159;51.072;13.526;2023-04-16T04:17:52;8.50;95.10
33865;DHT22;20159;51.072;13.526;2023-04-16T04:20:17;8.50;95.10
33865;DHT22;20159;51.072;13.526;2023-04-16T04:22:43;8.50;95.10
33865;DHT22;20159;51.072;13.526;2023-04-16T04:25:12;8.60;95.20
33865;DHT22;20159;51.072;13.526;2023-04-16T04:27:37;8.50;95.20
33865;DHT22;20159;51.072;13.526;2023-04-16T04:30:04;8.50;95.20
33865;DHT22;20159;51.072;13.526;2023-04-16T04:32:29;8.50;95.30
33865;DHT22;20159;51.072;13.526;2023-04-16T04:34:56;8.60;95.30
33865;DHT22;20159;51.072;13.526;2023-04-16T04:37:21;8.60;95.30
33865;DHT22;20159;51.072;13.526;2023-04-16T04:39:47;8.60;95.30
33865;DHT22;20159;51.072;13.526;2023-04-16T04:42:14;8.60;95.40
33865;DHT22;20159;51.072;13.526;2023-04-16T04:44:39;8.70;95.40
33865;DHT22;20159;51.072;13.526;2023-04-16T04:47:05;8.70;95.40
33865;DHT22;20159;51.072;13.526;2023-04-16T04:49:31;8.70;95.40
33865;DHT22;20159;51.072;13.526;2023-04-16T04:51:56;8.80;95.40
33865;DHT22;20159;51.072;13.526;2023-04-16T04:54:21;8.80;95.50
33865;DHT22;20159;51.072;13.526;2023-04-16T04:56:47;8.70;95.50
33865;DHT22;20159;51.072;13.526;2023-04-16T04:59:12;8.80;95.50
33865;DHT22;20159;51.072;13.526;2023-04-16T05:01:38;8.90;95.50
33865;DHT22;20159;51.072;13.526;2023-04-16T05:04:04;8.90;95.50
33865;DHT22;20159;51.072;13.526;2023-04-16T05:06:29;9.00;95.50
33865;DHT22;20159;51.072;13.526;2023-04-16T05:08:55;9.00;95.40
33865;DHT22;20159;51.072;13.526;2023-04-16T05:11:21;9.10;95.40
33865;DHT22;20159;51.072;13.526;2023-04-16T05:13:46;9.20;95.50
33865;DHT22;20159;51.072;13.526;2023-04-16T05:16:12;9.20;95.30
33865;DHT22;20159;51.072;13.526;2023-04-16T05:18:37;9.30;95.10
33865;DHT22;20159;51.072;13.526;2023-04-16T05:21:03;9.40;95.10
33865;DHT22;20159;51.072;13.526;2023-04-16T05:23:29;9.40;95.00
33865;DHT22;20159;51.072;13.526;2023-04-16T05:25:54;9.50;95.10
33865;DHT22;20159;51.072;13.526;2023-04-16T05:28:20;9.60;95.20
33865;DHT22;20159;51.072;13.526;2023-04-16T05:30:45;9.70;94.90
33865;DHT22;20159;51.072;13.526;2023-04-16T05:33:11;9.80;94.70
33865;DHT22;20159;51.072;13.526;2023-04-16T05:35:36;10.00;94.70
33865;DHT22;20159;51.072;13.526;2023-04-16T05:38:02;10.00;94.70
33865;DHT22;20159;51.072;13.526;2023-04-16T05:40:28;10.10;94.80
33865;DHT22;20159;51.072;13.526;2023-04-16T05:42:54;10.30;94.90
33865;DHT22;20159;51.072;13.526;2023-04-16T05:45:19;10.40;94.90
33865;DHT22;20159;51.072;13.526;2023-04-16T05:47:45;10.50;95.00
33865;DHT22;20159;51.072;13.526;2023-04-16T05:50:10;10.60;94.70
33865;DHT22;20159;51.072;13.526;2023-04-16T05:52:37;10.80;94.90
33865;DHT22;20159;51.072;13.526;2023-04-16T05:55:03;10.90;94.90
33865;DHT22;20159;51.072;13.526;2023-04-16T05:57:29;11.10;94.50
33865;DHT22;20159;51.072;13.526;2023-04-16T05:59:55;11.20;94.40
33865;DHT22;20159;51.072;13.526;2023-04-16T06:02:23;10.30;94.10
33865;DHT22;20159;51.072;13.526;2023-04-16T06:04:49;11.60;94.00
33865;DHT22;20159;51.072;13.526;2023-04-16T06:07:15;11.70;93.80
33865;DHT22;20159;51.072;13.526;2023-04-16T06:09:40;11.90;93.90
33865;DHT22;20159;51.072;13.526;2023-04-16T06:12:09;12.10;94.00
33865;DHT22;20159;51.072;13.526;2023-04-16T06:14:34;12.20;94.10
33865;DHT22;20159;51.072;13.526;2023-04-16T06:17:00;12.40;93.90
33865;DHT22;20159;51.072;13.526;2023-04-16T06:19:26;12.60;93.60
33865;DHT22;20159;51.072;13.526;2023-04-16T06:21:52;12.80;93.50
33865;DHT22;20159;51.072;13.526;2023-04-16T06:24:18;12.80;92.90
33865;DHT22;20159;51.072;13.526;2023-04-16T06:26:43;13.10;93.20
33865;DHT22;20159;51.072;13.526;2023-04-16T06:29:09;13.10;93.00
33865;DHT22;20159;51.072;13.526;2023-04-16T06:31:36;13.20;92.70
33865;DHT22;20159;51.072;13.526;2023-04-16T06:34:01;13.30;92.30
33865;DHT22;20159;51.072;13.526;2023-04-16T06:36:27;13.40;92.00
33865;DHT22;20159;51.072;13.526;2023-04-16T06:38:53;13.50;91.90
33865;DHT22;20159;51.072;13.526;2023-04-16T06:41:18;13.60;91.50
33865;DHT22;20159;51.072;13.526;2023-04-16T06:43:44;13.60;91.70
33865;DHT22;20159;51.072;13.526;2023-04-16T06:46:10;13.70;91.80
33865;DHT22;20159;51.072;13.526;2023-04-16T06:48:35;13.80;91.70
33865;DHT22;20159;51.072;13.526;2023-04-16T06:51:01;13.80;91.50
33865;DHT22;20159;51.072;13.526;2023-04-16T06:53:26;13.90;91.40
33865;DHT22;20159;51.072;13.526;2023-04-16T06:55:52;14.00;91.00
33865;DHT22;20159;51.072;13.526;2023-04-16T06:58:18;14.10;91.00
33865;DHT22;20159;51.072;13.526;2023-04-16T07:00:43;14.20;91.20
33865;DHT22;20159;51.072;13.526;2023-04-16T07:03:09;14.30;91.50
33865;DHT22;20159;51.072;13.526;2023-04-16T07:05:34;14.40;90.80
33865;DHT22;20159;51.072;13.526;2023-04-16T07:08:00;14.50;90.80
33865;DHT22;20159;51.072;13.526;2023-04-16T07:10:26;14.60;90.40
33865;DHT22;20159;51.072;13.526;2023-04-16T07:12:51;14.70;89.70
33865;DHT22;20159;51.072;13.526;2023-04-16T07:15:17;14.90;90.30
33865;DHT22;20159;51.072;13.526;2023-04-16T07:17:42;15.00;90.40
33865;DHT22;20159;51.072;13.526;2023-04-16T07:20:08;15.10;90.00
33865;DHT22;20159;51.072;13.526;2023-04-16T07:22:33;15.20;88.40
33865;DHT22;20159;51.072;13.526;2023-04-16T07:24:59;15.20;88.20
33865;DHT22;20159;51.072;13.526;2023-04-16T07:27:25;15.40;88.30
33865;DHT22;20159;51.072;13.526;2023-04-16T07:29:50;15.40;88.10
33865;DHT22;20159;51.072;13.526;2023-04-16T07:32:16;15.50;88.80
33865;DHT22;20159;51.072;13.526;2023-04-16T07:34:41;15.60;88.10
33865;DHT22;20159;51.072;13.526;2023-04-16T07:37:07;15.70;88.00
33865;DHT22;20159;51.072;13.526;2023-04-16T07:39:33;15.80;87.40
33865;DHT22;20159;51.072;13.526;2023-04-16T07:41:58;15.90;87.40
33865;DHT22;20159;51.072;13.526;2023-04-16T07:44:24;15.90;86.60
33865;DHT22;20159;51.072;13.526;2023-04-16T07:46:50;16.00;87.30
33865;DHT22;20159;51.072;13.526;2023-04-16T07:49:15;18.00;86.70
33865;DHT22;20159;51.072;13.526;2023-04-16T07:51:41;16.20;86.00
33865;DHT22;20159;51.072;13.526;2023-04-16T07:54:06;16.30;85.90
33865;DHT22;20159;51.072;13.526;2023-04-16T07:56:32;16.30;85.40
33865;DHT22;20159;51.072;13.526;2023-04-16T07:58:57;16.40;84.00
33865;DHT22;20159;51.072;13.526;2023-04-16T08:01:23;16.50;84.30
33865;DHT22;20159;51.072;13.526;2023-04-16T08:03:49;16.50;85.10
33865;DHT22;20159;51.072;13.526;2023-04-16T08:06:14;16.60;85.30
33865;DHT22;20159;51.072;13.526;2023-04-16T08:08:40;16.70;85.10
33865;DHT22;20159;51.072;13.526;2023-04-16T08:11:06;16.70;85.00
33865;DHT22;20159;51.072;13.526;2023-04-16T08:13:31;15.00;83.80
33865;DHT22;20159;51.072;13.526;2023-04-16T08:15:57;16.90;83.50
33865;DHT22;20159;51.072;13.526;2023-04-16T08:18:22;17.00;85.10
33865;DHT22;20159;51.072;13.526;2023-04-16T08:20:48;17.20;84.70
33865;DHT22;20159;51.072;13.526;2023-04-16T08:23:13;17.30;82.80
33865;DHT22;20159;51.072;13.526;2023-04-16T08:25:39;17.50;83.20
33865;DHT22;20159;51.072;13.526;2023-04-16T08:28:05;17.50;81.90
33865;DHT22;20159;51.072;13.526;2023-04-16T08:30:30;17.60;80.80
33865;DHT22;20159;51.072;13.526;2023-04-16T08:32:56;17.70;80.70
33865;DHT22;20159;51.072;13.526;2023-04-16T08:35:22;17.70;81.30
33865;DHT22;20159;51.072;13.526;2023-04-16T08:37:47;17.80;80.60
33865;DHT22;20159;51.072;13.526;2023-04-16T08:40:13;17.80;80.00
33865;DHT22;20159;51.072;13.526;2023-04-16T08:42:52;17.80;80.60
33865;DHT22;20159;51.072;13.526;2023-04-16T08:45:18;17.50;79.90
33865;DHT22;20159;51.072;13.526;2023-04-16T08:47:50;17.80;79.10
33865;DHT22;20159;51.072;13.526;2023-04-16T08:50:24;17.80;79.10
33865;DHT22;20159;51.072;13.526;2023-04-16T08:52:52;17.80;78.80
33865;DHT22;20159;51.072;13.526;2023-04-16T08:55:20;17.70;79.30
33865;DHT22;20159;51.072;13.526;2023-04-16T08:57:51;17.70;79.40
33865;DHT22;20159;51.072;13.526;2023-04-16T09:00:21;17.70;78.30
33865;DHT22;20159;51.072;13.526;2023-04-16T09:02:48;17.70;80.30
33865;DHT22;20159;51.072;13.526;2023-04-16T09:05:16;17.70;80.10
33865;DHT22;20159;51.072;13.526;2023-04-16T09:07:51;17.70;79.60
33865;DHT22;20159;51.072;13.526;2023-04-16T09:10:17;17.70;79.20
33865;DHT22;20159;51.072;13.526;2023-04-16T09:12:43;17.70;79.80
33865;DHT22;20159;51.072;13.526;2023-04-16T09:15:16;17.80;80.50
33865;DHT22;20159;51.072;13.526;2023-04-16T09:17:44;17.90;79.70
33865;DHT22;20159;51.072;13.526;2023-04-16T09:20:10;17.90;79.60
33865;DHT22;20159;51.072;13.526;2023-04-16T09:22:39;17.90;79.50
33865;DHT22;20159;51.072;13.526;2023-04-16T09:25:06;18.00;79.80
33865;DHT22;20159;51.072;13.526;2023-04-16T09:27:32;18.10;79.10
33865;DHT22;20159;51.072;13.526;2023-04-16T09:29:58;18.10;80.20
33865;DHT22;20159;51.072;13.526;2023-04-16T09:32:25;18.10;79.30
33865;DHT22;20159;51.072;13.526;2023-04-16T09:34:59;18.20;79.10
33865;DHT22;20159;51.072;13.526;2023-04-16T09:37:29;18.20;80.30
33865;DHT22;20159;51.072;13.526;2023-04-16T09:40:02;18.30;77.50
33865;DHT22;20159;51.072;13.526;2023-04-16T09:42:34;18.40;78.90
33865;DHT22;20159;51.072;13.526;2023-04-16T09:45:00;18.40;77.10
33865;DHT22;20159;51.072;13.526;2023-04-16T09:47:41;18.50;77.70
33865;DHT22;20159;51.072;13.526;2023-04-16T09:50:08;18.60;78.00
33865;DHT22;20159;51.072;13.526;2023-04-16T09:52:37;18.70;78.50
33865;DHT22;20159;51.072;13.526;2023-04-16T09:55:06;18.80;78.10
33865;DHT22;20159;51.072;13.526;2023-04-16T09:57:36;18.80;78.20
33865;DHT22;20159;51.072;13.526;2023-04-16T10:00:04;18.90;76.90
33865;DHT22;20159;51.072;13.526;2023-04-16T10:02:30;19.00;76.50
33865;DHT22;20159;51.072;13.526;2023-04-16T10:05:00;19.10;76.30
33865;DHT22;20159;51.072;13.526;2023-04-16T10:07:32;19.10;75.40
33865;DHT22;20159;51.072;13.526;2023-04-16T10:09:58;19.30;74.20
33865;DHT22;20159;51.072;13.526;2023-04-16T10:12:24;19.30;74.10
33865;DHT22;20159;51.072;13.526;2023-04-16T10:14:49;19.40;75.00
33865;DHT22;20159;51.072;13.526;2023-04-16T10:17:15;20.60;75.70
33865;DHT22;20159;51.072;13.526;2023-04-16T10:19:41;19.50;74.80
33865;DHT22;20159;51.072;13.526;2023-04-16T10:22:07;19.60;74.20
33865;DHT22;20159;51.072;13.526;2023-04-16T10:24:33;19.60;73.60
33865;DHT22;20159;51.072;13.526;2023-04-16T10:27:00;19.70;73.20
33865;DHT22;20159;51.072;13.526;2023-04-16T10:29:28;19.80;72.80
33865;DHT22;20159;51.072;13.526;2023-04-16T10:31:54;19.90;73.20
33865;DHT22;20159;51.072;13.526;2023-04-16T10:34:22;20.00;72.30
33865;DHT22;20159;51.072;13.526;2023-04-16T10:36:48;20.10;71.50
33865;DHT22;20159;51.072;13.526;2023-04-16T10:39:20;20.10;72.20
33865;DHT22;20159;51.072;13.526;2023-04-16T10:41:46;20.30;71.20
33865;DHT22;20159;51.072;13.526;2023-04-16T10:44:12;20.40;70.50
33865;DHT22;20159;51.072;13.526;2023-04-16T10:46:39;20.50;71.10
33865;DHT22;20159;51.072;13.526;2023-04-16T10:49:22;20.70;72.20
33865;DHT22;20159;51.072;13.526;2023-04-16T10:51:57;20.90;71.00
33865;DHT22;20159;51.072;13.526;2023-04-16T10:54:25;21.00;70.30
33865;DHT22;20159;51.072;13.526;2023-04-16T10:56:52;21.20;71.00
33865;DHT22;20159;51.072;13.526;2023-04-16T10:59:19;21.40;70.30
33865;DHT22;20159;51.072;13.526;2023-04-16T11:01:46;21.50;70.00
33865;DHT22;20159;51.072;13.526;2023-04-16T11:07:00;21.80;69.40
33865;DHT22;20159;51.072;13.526;2023-04-16T11:12:12;22.20;66.10
33865;DHT22;20159;51.072;13.526;2023-04-16T11:14:39;22.30;68.60
33865;DHT22;20159;51.072;13.526;2023-04-16T11:17:06;22.40;65.30
33865;DHT22;20159;51.072;13.526;2023-04-16T11:19:32;22.50;66.20
33865;DHT22;20159;51.072;13.526;2023-04-16T11:21:58;22.50;65.10
33865;DHT22;20159;51.072;13.526;2023-04-16T11:24:28;22.50;65.70
33865;DHT22;20159;51.072;13.526;2023-04-16T11:26:55;22.50;66.20
33865;DHT22;20159;51.072;13.526;2023-04-16T11:29:20;22.50;65.20
33865;DHT22;20159;51.072;13.526;2023-04-16T11:31:50;22.60;65.70
33865;DHT22;20159;51.072;13.526;2023-04-16T11:34:17;22.50;64.40
33865;DHT22;20159;51.072;13.526;2023-04-16T11:36:43;22.50;64.40
33865;DHT22;20159;51.072;13.526;2023-04-16T11:39:09;22.50;64.40
33865;DHT22;20159;51.072;13.526;2023-04-16T11:41:44;22.50;65.10
33865;DHT22;20159;51.072;13.526;2023-04-16T11:44:23;22.60;64.30
33865;DHT22;20159;51.072;13.526;2023-04-16T11:46:49;22.60;64.40
33865;DHT22;20159;51.072;13.526;2023-04-16T11:49:15;22.70;64.50
33865;DHT22;20159;51.072;13.526;2023-04-16T11:51:45;22.70;63.30
33865;DHT22;20159;51.072;13.526;2023-04-16T11:54:21;22.70;61.70
33865;DHT22;20159;51.072;13.526;2023-04-16T11:56:49;22.70;62.70
33865;DHT22;20159;51.072;13.526;2023-04-16T11:59:16;22.70;62.10
33865;DHT22;20159;51.072;13.526;2023-04-16T12:01:47;22.80;61.90
33865;DHT22;20159;51.072;13.526;2023-04-16T12:04:14;22.80;61.40
33865;DHT22;20159;51.072;13.526;2023-04-16T12:09:26;23.00;63.30
33865;DHT22;20159;51.072;13.526;2023-04-16T12:11:52;23.10;62.60
33865;DHT22;20159;51.072;13.526;2023-04-16T12:14:18;23.30;63.40
33865;DHT22;20159;51.072;13.526;2023-04-16T12:16:44;23.40;61.60
33865;DHT22;20159;51.072;13.526;2023-04-16T12:19:11;23.60;61.30
33865;DHT22;20159;51.072;13.526;2023-04-16T12:21:47;23.70;61.30
33865;DHT22;20159;51.072;13.526;2023-04-16T12:24:16;23.80;60.90
33865;DHT22;20159;51.072;13.526;2023-04-16T12:26:46;23.80;60.00
33865;DHT22;20159;51.072;13.526;2023-04-16T12:29:19;23.80;57.80
33865;DHT22;20159;51.072;13.526;2023-04-16T12:31:46;23.80;57.30
33865;DHT22;20159;51.072;13.526;2023-04-16T12:34:12;23.80;58.00
33865;DHT22;20159;51.072;13.526;2023-04-16T12:36:40;23.70;58.70
33865;DHT22;20159;51.072;13.526;2023-04-16T12:39:05;23.60;56.90
33865;DHT22;20159;51.072;13.526;2023-04-16T12:41:32;23.60;57.10
33865;DHT22;20159;51.072;13.526;2023-04-16T12:44:08;23.50;56.80
33865;DHT22;20159;51.072;13.526;2023-04-16T12:46:37;23.50;55.90
33865;DHT22;20159;51.072;13.526;2023-04-16T12:49:02;23.40;57.10
33865;DHT22;20159;51.072;13.526;2023-04-16T12:51:28;23.40;57.70
33865;DHT22;20159;51.072;13.526;2023-04-16T12:53:53;23.30;57.60
33865;DHT22;20159;51.072;13.526;2023-04-16T12:56:19;23.30;57.40
33865;DHT22;20159;51.072;13.526;2023-04-16T12:58:45;23.20;56.00
33865;DHT22;20159;51.072;13.526;2023-04-16T13:01:10;23.10;56.20
33865;DHT22;20159;51.072;13.526;2023-04-16T13:03:36;23.10;55.00
33865;DHT22;20159;51.072;13.526;2023-04-16T13:06:03;22.90;56.30
33865;DHT22;20159;51.072;13.526;2023-04-16T13:08:28;22.80;57.10
33865;DHT22;20159;51.072;13.526;2023-04-16T13:10:54;22.70;56.20
33865;DHT22;20159;51.072;13.526;2023-04-16T13:13:19;22.60;57.90
33865;DHT22;20159;51.072;13.526;2023-04-16T13:15:45;22.50;57.70
33865;DHT22;20159;51.072;13.526;2023-04-16T13:18:10;22.40;57.50
33865;DHT22;20159;51.072;13.526;2023-04-16T13:20:36;22.30;58.30
33865;DHT22;20159;51.072;13.526;2023-04-16T13:23:02;22.20;58.30
33865;DHT22;20159;51.072;13.526;2023-04-16T13:25:29;22.10;57.70
33865;DHT22;20159;51.072;13.526;2023-04-16T13:27:55;22.00;57.30
33865;DHT22;20159;51.072;13.526;2023-04-16T13:30:21;21.90;58.60
33865;DHT22;20159;51.072;13.526;2023-04-16T13:32:46;21.80;60.20
33865;DHT22;20159;51.072;13.526;2023-04-16T13:35:12;21.70;60.80
33865;DHT22;20159;51.072;13.526;2023-04-16T13:37:37;21.70;60.80
33865;DHT22;20159;51.072;13.526;2023-04-16T13:40:03;21.60;60.50
33865;DHT22;20159;51.072;13.526;2023-04-16T13:42:28;21.50;60.00
33865;DHT22;20159;51.072;13.526;2023-04-16T13:44:54;21.50;61.30
33865;DHT22;20159;51.072;13.526;2023-04-16T13:47:20;21.30;61.10
33865;DHT22;20159;51.072;13.526;2023-04-16T13:49:46;21.30;61.50
33865;DHT22;20159;51.072;13.526;2023-04-16T13:52:11;21.10;61.80
33865;DHT22;20159;51.072;13.526;2023-04-16T13:54:37;20.90;61.60
33865;DHT22;20159;51.072;13.526;2023-04-16T13:57:02;20.80;61.90
33865;DHT22;20159;51.072;13.526;2023-04-16T13:59:28;20.70;62.40
33865;DHT22;20159;51.072;13.526;2023-04-16T14:01:53;20.50;62.80
33865;DHT22;20159;51.072;13.526;2023-04-16T14:04:20;20.40;62.30
33865;DHT22;20159;51.072;13.526;2023-04-16T14:06:47;20.30;62.20
33865;DHT22;20159;51.072;13.526;2023-04-16T14:09:13;20.20;62.70
33865;DHT22;20159;51.072;13.526;2023-04-16T14:11:38;20.10;63.30
33865;DHT22;20159;51.072;13.526;2023-04-16T14:14:04;20.10;64.40
33865;DHT22;20159;51.072;13.526;2023-04-16T14:16:29;20.10;64.80
33865;DHT22;20159;51.072;13.526;2023-04-16T14:18:55;20.10;65.40
33865;DHT22;20159;51.072;13.526;2023-04-16T14:21:21;20.00;66.00
33865;DHT22;20159;51.072;13.526;2023-04-16T14:23:46;20.00;66.40
33865;DHT22;20159;51.072;13.526;2023-04-16T14:26:12;20.00;66.80
33865;DHT22;20159;51.072;13.526;2023-04-16T14:28:37;20.00;66.10
33865;DHT22;20159;51.072;13.526;2023-04-16T14:31:04;22.70;69.00
33865;DHT22;20159;51.072;13.526;2023-04-16T14:33:29;20.00;67.00
33865;DHT22;20159;51.072;13.526;2023-04-16T14:35:56;20.00;67.00
33865;DHT22;20159;51.072;13.526;2023-04-16T14:38:22;20.00;66.90
33865;DHT22;20159;51.072;13.526;2023-04-16T14:40:47;20.00;66.30
33865;DHT22;20159;51.072;13.526;2023-04-16T14:43:13;20.00;66.10
33865;DHT22;20159;51.072;13.526;2023-04-16T14:45:39;19.90;66.80
33865;DHT22;20159;51.072;13.526;2023-04-16T14:48:05;19.90;66.70
33865;DHT22;20159;51.072;13.526;2023-04-16T14:50:30;19.80;66.30
33865;DHT22;20159;51.072;13.526;2023-04-16T14:52:56;19.60;66.50
33865;DHT22;20159;51.072;13.526;2023-04-16T14:55:21;19.60;66.60
33865;DHT22;20159;51.072;13.526;2023-04-16T14:57:47;19.40;67.10
33865;DHT22;20159;51.072;13.526;2023-04-16T15:00:13;19.20;67.30
33865;DHT22;20159;51.072;13.526;2023-04-16T15:02:43;19.10;68.10
33865;DHT22;20159;51.072;13.526;2023-04-16T15:05:09;19.00;68.10
33865;DHT22;20159;51.072;13.526;2023-04-16T15:07:35;18.90;68.30
33865;DHT22;20159;51.072;13.526;2023-04-16T15:10:01;18.80;68.90
33865;DHT22;20159;51.072;13.526;2023-04-16T15:12:27;18.80;68.70
33865;DHT22;20159;51.072;13.526;2023-04-16T15:14:55;18.80;69.10
33865;DHT22;20159;51.072;13.526;2023-04-16T15:17:21;18.80;69.00
33865;DHT22;20159;51.072;13.526;2023-04-16T15:19:46;18.80;68.60
33865;DHT22;20159;51.072;13.526;2023-04-16T15:22:12;18.90;68.90
33865;DHT22;20159;51.072;13.526;2023-04-16T15:24:39;18.90;69.20